createdAt,value
2023-01-18T00:00:09.119Z,76.99
2023-01-18T00:01:09.074Z,76.68
2023-01-18T00:02:09.102Z,73.42
2023-01-18T00:03:09.021Z,73.78
2023-01-18T00:04:09.017Z,74.95
2023-01-18T00:05:09.075Z,74.25
2023-01-18T00:06:08.971Z,74.11
2023-01-18T00:07:08.983Z,74.14
2023-01-18T00:08:08.927Z,73.93
2023-01-18T00:09:08.900Z,74.95
2023-01-18T00:10:08.877Z,74.54
2023-01-18T00:11:08.887Z,76.65
2023-01-18T00:12:08.867Z,74.77
2023-01-18T00:13:08.824Z,73.97
2023-01-18T00:14:08.811Z,74.66
2023-01-18T00:15:08.778Z,73.12
2023-01-18T00:16:08.800Z,74.92
2023-01-18T00:17:08.772Z,74.78
2023-01-18T00:18:08.720Z,75.34
2023-01-18T00:19:08.700Z,75.64
2023-01-18T00:20:08.688Z,75.43
2023-01-18T00:21:08.667Z,74.61
2023-01-18T00:22:08.660Z,74.19
2023-01-18T00:23:08.616Z,76.20
2023-01-18T00:24:08.598Z,71.67
2023-01-18T00:25:08.584Z,74.20
2023-01-18T00:26:08.591Z,75.07
2023-01-18T00:27:08.566Z,73.58
2023-01-18T00:28:08.519Z,75.39
2023-01-18T00:29:08.503Z,73.27
2023-01-18T00:30:08.483Z,72.00
2023-01-18T00:31:08.464Z,74.04
2023-01-18T00:32:08.459Z,74.60
2023-01-18T00:33:08.422Z,76.54
2023-01-18T00:34:08.397Z,76.95
2023-01-18T00:35:08.378Z,73.14
2023-01-18T00:36:08.360Z,75.88
2023-01-18T00:37:08.357Z,73.72
2023-01-18T00:38:08.315Z,73.00
2023-01-18T00:39:08.293Z,75.19
2023-01-18T00:40:08.275Z,74.64
2023-01-18T00:41:08.267Z,74.60
2023-01-18T00:42:08.263Z,75.60
2023-01-18T00:43:08.262Z,75.16
2023-01-18T00:44:08.194Z,70.77
2023-01-18T00:45:08.169Z,75.58
2023-01-18T00:46:09.199Z,73.12
2023-01-18T00:47:08.184Z,72.87
2023-01-18T00:48:08.110Z,75.46
2023-01-18T00:49:08.094Z,72.39
2023-01-18T00:50:08.072Z,73.44
2023-01-18T00:51:08.053Z,74.18
2023-01-18T00:52:08.052Z,74.09
2023-01-18T00:53:08.014Z,75.58
2023-01-18T00:54:07.993Z,74.52
2023-01-18T00:55:07.977Z,74.20
2023-01-18T00:56:07.957Z,75.59
2023-01-18T00:57:07.978Z,74.99
2023-01-18T00:58:07.917Z,75.72
2023-01-18T00:59:07.899Z,75.55
2023-01-18T01:00:07.878Z,73.87
2023-01-18T01:01:07.994Z,74.17
2023-01-18T01:02:08.132Z,74.33
2023-01-18T01:03:07.816Z,76.31
2023-01-18T01:04:07.794Z,77.24
2023-01-18T01:05:07.775Z,76.49
2023-01-18T01:06:07.765Z,76.00
2023-01-18T01:07:07.769Z,77.30
2023-01-18T01:08:07.729Z,73.77
2023-01-18T01:09:07.696Z,72.58
2023-01-18T01:10:07.672Z,75.52
2023-01-18T01:11:07.660Z,74.19
2023-01-18T01:12:07.655Z,76.80
2023-01-18T01:13:07.650Z,73.65
2023-01-18T01:14:07.594Z,76.06
2023-01-18T01:15:07.578Z,74.93
2023-01-18T01:16:07.557Z,75.75
2023-01-18T01:17:07.568Z,74.38
2023-01-18T01:18:07.515Z,76.12
2023-01-18T01:19:07.489Z,75.33
2023-01-18T01:20:07.477Z,73.54
2023-01-18T01:21:07.458Z,76.00
2023-01-18T01:22:07.461Z,73.22
2023-01-18T01:23:07.411Z,76.26
2023-01-18T01:24:07.398Z,74.11
2023-01-18T01:25:07.390Z,73.44
2023-01-18T01:26:07.370Z,72.53
2023-01-18T01:27:07.370Z,75.02
2023-01-18T01:28:07.315Z,75.41
2023-01-18T01:29:07.297Z,72.96
2023-01-18T01:30:07.275Z,74.36
2023-01-18T01:31:07.363Z,75.65
2023-01-18T01:32:07.298Z,74.92
2023-01-18T01:33:07.218Z,74.02
2023-01-18T01:34:07.236Z,75.18
2023-01-18T01:35:07.189Z,72.66
2023-01-18T01:36:07.153Z,76.77
2023-01-18T01:37:07.164Z,77.45
2023-01-18T01:38:07.121Z,76.00
2023-01-18T01:39:07.123Z,78.89
2023-01-18T01:40:07.076Z,74.46
2023-01-18T01:41:07.068Z,75.12
2023-01-18T01:42:07.064Z,77.33
2023-01-18T01:43:07.027Z,74.73
2023-01-18T01:44:06.994Z,77.43
2023-01-18T01:45:06.978Z,75.69
2023-01-18T01:46:06.971Z,77.94
2023-01-18T01:47:06.974Z,76.25
2023-01-18T01:48:07.917Z,74.72
2023-01-18T01:49:06.897Z,77.03
2023-01-18T01:50:06.905Z,75.68
2023-01-18T01:51:06.862Z,76.91
2023-01-18T01:52:06.860Z,75.04
2023-01-18T01:53:06.812Z,76.02
2023-01-18T01:54:06.804Z,76.02
2023-01-18T01:55:06.773Z,75.58
2023-01-18T01:56:06.746Z,74.39
2023-01-18T01:57:06.751Z,73.75
2023-01-18T01:58:06.708Z,74.94
2023-01-18T01:59:06.692Z,75.31
2023-01-18T02:00:06.663Z,75.27
2023-01-18T02:01:06.705Z,77.36
2023-01-18T02:02:06.754Z,74.46
2023-01-18T02:03:06.603Z,76.12
2023-01-18T02:04:06.580Z,74.05
2023-01-18T02:05:06.559Z,75.54
2023-01-18T02:06:06.537Z,73.22
2023-01-18T02:07:06.559Z,75.98
2023-01-18T02:08:06.494Z,76.79
2023-01-18T02:09:06.473Z,77.71
2023-01-18T02:10:06.452Z,75.90
2023-01-18T02:11:06.429Z,75.78
2023-01-18T02:12:06.437Z,77.50
2023-01-18T02:13:06.391Z,76.30
2023-01-18T02:14:06.371Z,76.10
2023-01-18T02:15:06.346Z,74.41
2023-01-18T02:16:06.337Z,74.13
2023-01-18T02:17:06.339Z,74.61
2023-01-18T02:18:06.293Z,75.12
2023-01-18T02:19:06.271Z,75.70
2023-01-18T02:20:06.243Z,75.17
2023-01-18T02:21:06.225Z,76.37
2023-01-18T02:22:06.233Z,75.81
2023-01-18T02:23:06.181Z,75.28
2023-01-18T02:24:06.163Z,75.00
2023-01-18T02:25:06.141Z,75.46
2023-01-18T02:26:06.126Z,78.03
2023-01-18T02:27:06.153Z,76.37
2023-01-18T02:28:06.080Z,75.89
2023-01-18T02:29:06.061Z,76.62
2023-01-18T02:30:06.028Z,79.39
2023-01-18T02:31:07.102Z,78.00
2023-01-18T02:32:05.998Z,74.48
2023-01-18T02:33:06.002Z,71.68
2023-01-18T02:34:05.954Z,75.05
2023-01-18T02:35:05.932Z,76.05
2023-01-18T02:36:05.913Z,75.54
2023-01-18T02:37:05.890Z,78.06
2023-01-18T02:38:05.899Z,77.38
2023-01-18T02:39:05.856Z,76.95
2023-01-18T02:40:05.831Z,73.51
2023-01-18T02:41:05.842Z,72.73
2023-01-18T02:42:05.797Z,77.57
2023-01-18T02:43:05.801Z,77.52
2023-01-18T02:44:05.745Z,77.28
2023-01-18T02:45:05.732Z,75.25
2023-01-18T02:46:05.762Z,78.30
2023-01-18T02:47:05.690Z,76.28
2023-01-18T02:48:05.689Z,75.82
2023-01-18T02:49:05.644Z,74.44
2023-01-18T02:50:05.621Z,76.31
2023-01-18T02:51:05.614Z,76.78
2023-01-18T02:52:05.577Z,74.53
2023-01-18T02:53:05.581Z,74.68
2023-01-18T02:54:06.538Z,74.55
2023-01-18T02:55:05.519Z,77.12
2023-01-18T02:56:05.501Z,76.18
2023-01-18T02:57:05.471Z,76.38
2023-01-18T02:58:05.481Z,77.47
2023-01-18T02:59:05.438Z,73.39
2023-01-18T03:00:05.413Z,71.89
2023-01-18T03:01:05.434Z,77.09
2023-01-18T03:02:05.442Z,77.70
2023-01-18T03:03:05.377Z,76.45
2023-01-18T03:04:05.325Z,75.73
2023-01-18T03:05:05.308Z,75.27
2023-01-18T03:06:05.286Z,77.50
2023-01-18T03:07:05.267Z,75.62
2023-01-18T03:08:05.271Z,73.04
2023-01-18T03:09:05.224Z,76.69
2023-01-18T03:10:05.203Z,77.95
2023-01-18T03:11:05.192Z,77.41
2023-01-18T03:12:05.166Z,76.62
2023-01-18T03:13:05.171Z,77.40
2023-01-18T03:14:05.128Z,78.39
2023-01-18T03:15:05.113Z,74.93
2023-01-18T03:16:05.103Z,75.84
2023-01-18T03:17:05.073Z,74.57
2023-01-18T03:18:05.074Z,77.00
2023-01-18T03:19:05.051Z,76.26
2023-01-18T03:20:05.006Z,78.56
2023-01-18T03:21:04.990Z,76.88
2023-01-18T03:22:04.968Z,77.90
2023-01-18T03:23:04.977Z,78.61
2023-01-18T03:24:04.927Z,77.34
2023-01-18T03:25:04.911Z,77.20
2023-01-18T03:26:04.888Z,77.21
2023-01-18T03:27:04.869Z,77.55
2023-01-18T03:28:04.877Z,76.76
2023-01-18T03:29:04.826Z,75.87
2023-01-18T03:30:04.809Z,77.50
2023-01-18T03:31:04.900Z,76.82
2023-01-18T03:32:04.771Z,76.28
2023-01-18T03:33:04.778Z,78.51
2023-01-18T03:34:04.739Z,77.29
2023-01-18T03:35:04.718Z,78.53
2023-01-18T03:36:04.687Z,78.16
2023-01-18T03:37:04.678Z,77.29
2023-01-18T03:38:04.667Z,78.77
2023-01-18T03:39:04.624Z,77.64
2023-01-18T03:40:04.613Z,77.69
2023-01-18T03:41:04.584Z,79.08
2023-01-18T03:42:04.564Z,76.05
2023-01-18T03:43:04.566Z,76.64
2023-01-18T03:44:04.523Z,77.96
2023-01-18T03:45:04.504Z,78.24
2023-01-18T03:46:04.512Z,79.43
2023-01-18T03:47:04.459Z,76.93
2023-01-18T03:48:04.465Z,77.61
2023-01-18T03:49:04.417Z,76.91
2023-01-18T03:50:04.396Z,74.99
2023-01-18T03:51:04.385Z,76.81
2023-01-18T03:52:04.354Z,76.67
2023-01-18T03:53:04.363Z,78.48
2023-01-18T03:54:04.315Z,78.28
2023-01-18T03:55:04.297Z,78.90
2023-01-18T03:56:04.276Z,77.29
2023-01-18T03:57:04.256Z,77.85
2023-01-18T03:58:04.261Z,77.79
2023-01-18T03:59:04.216Z,77.62
2023-01-18T04:00:04.188Z,77.06
2023-01-18T04:01:04.299Z,76.59
2023-01-18T04:02:04.211Z,73.31
2023-01-18T04:03:04.206Z,77.25
2023-01-18T04:04:04.121Z,77.82
2023-01-18T04:05:04.095Z,76.81
2023-01-18T04:06:04.079Z,78.34
2023-01-18T04:07:04.061Z,77.73
2023-01-18T04:08:04.049Z,77.31
2023-01-18T04:09:05.011Z,77.31
2023-01-18T04:10:03.988Z,76.88
2023-01-18T04:11:03.981Z,78.99
2023-01-18T04:12:03.947Z,77.28
2023-01-18T04:13:03.950Z,78.92
2023-01-18T04:14:03.909Z,79.43
2023-01-18T04:15:03.883Z,78.87
2023-01-18T04:16:03.882Z,79.85
2023-01-18T04:17:03.850Z,78.16
2023-01-18T04:18:03.847Z,74.84
2023-01-18T04:19:03.800Z,78.29
2023-01-18T04:20:03.776Z,77.84
2023-01-18T04:21:03.760Z,78.39
2023-01-18T04:22:03.740Z,79.42
2023-01-18T04:23:03.742Z,78.07
2023-01-18T04:24:03.688Z,78.50
2023-01-18T04:25:03.671Z,79.66
2023-01-18T04:26:03.648Z,79.16
2023-01-18T04:27:03.625Z,79.04
2023-01-18T04:28:03.643Z,79.00
2023-01-18T04:29:03.589Z,77.87
2023-01-18T04:30:03.572Z,77.18
2023-01-18T04:31:03.617Z,79.10
2023-01-18T04:32:03.524Z,78.62
2023-01-18T04:33:03.525Z,78.68
2023-01-18T04:34:03.489Z,79.78
2023-01-18T04:35:03.460Z,78.09
2023-01-18T04:36:03.444Z,77.97
2023-01-18T04:37:03.414Z,77.83
2023-01-18T04:38:03.420Z,77.34
2023-01-18T04:39:03.375Z,80.18
2023-01-18T04:40:03.355Z,78.61
2023-01-18T04:41:03.332Z,78.41
2023-01-18T04:42:03.312Z,77.94
2023-01-18T04:43:03.314Z,78.00
2023-01-18T04:44:03.269Z,79.26
2023-01-18T04:45:03.249Z,79.64
2023-01-18T04:46:03.227Z,77.73
2023-01-18T04:47:03.207Z,77.92
2023-01-18T04:48:03.214Z,80.01
2023-01-18T04:49:03.164Z,78.49
2023-01-18T04:50:03.139Z,78.64
2023-01-18T04:51:03.126Z,78.73
2023-01-18T04:52:03.098Z,78.11
2023-01-18T04:53:03.107Z,77.61
2023-01-18T04:54:03.054Z,78.60
2023-01-18T04:55:03.039Z,76.23
2023-01-18T04:56:03.015Z,79.90
2023-01-18T04:57:03.003Z,79.29
2023-01-18T04:58:03.009Z,80.48
2023-01-18T04:59:02.952Z,79.41
2023-01-18T05:00:02.937Z,79.06
2023-01-18T05:01:03.094Z,78.42
2023-01-18T05:02:02.958Z,77.93
2023-01-18T05:03:02.891Z,79.52
2023-01-18T05:04:02.856Z,78.65
2023-01-18T05:05:02.832Z,75.82
2023-01-18T05:06:02.821Z,77.74
2023-01-18T05:07:02.792Z,78.97
2023-01-18T05:08:02.799Z,79.24
2023-01-18T05:09:02.757Z,79.60
2023-01-18T05:10:02.767Z,78.80
2023-01-18T05:11:02.711Z,78.78
2023-01-18T05:12:02.694Z,78.96
2023-01-18T05:13:02.695Z,80.30
2023-01-18T05:14:02.652Z,78.92
2023-01-18T05:15:02.638Z,78.49
2023-01-18T05:16:05.202Z,79.48
2023-01-18T05:17:02.602Z,80.32
2023-01-18T05:18:02.640Z,78.62
2023-01-18T05:19:02.555Z,80.44
2023-01-18T05:20:02.532Z,78.96
2023-01-18T05:21:02.534Z,79.99
2023-01-18T05:22:02.489Z,79.86
2023-01-18T05:23:02.498Z,80.06
2023-01-18T05:24:02.456Z,80.42
2023-01-18T05:25:02.429Z,80.21
2023-01-18T05:26:02.413Z,79.89
2023-01-18T05:27:02.396Z,77.90
2023-01-18T05:28:02.371Z,79.45
2023-01-18T05:29:02.376Z,79.39
2023-01-18T05:30:02.327Z,80.21
2023-01-18T05:31:02.321Z,79.25
2023-01-18T05:32:02.288Z,78.59
2023-01-18T05:33:02.270Z,78.20
2023-01-18T05:34:02.293Z,78.69
2023-01-18T05:35:02.235Z,79.86
2023-01-18T05:36:02.215Z,80.39
2023-01-18T05:37:02.199Z,80.73
2023-01-18T05:38:02.173Z,80.05
2023-01-18T05:39:02.174Z,79.76
2023-01-18T05:40:02.129Z,80.25
2023-01-18T05:41:02.108Z,80.88
2023-01-18T05:42:02.089Z,79.38
2023-01-18T05:43:02.067Z,80.75
2023-01-18T05:44:02.086Z,79.85
2023-01-18T05:45:02.044Z,80.84
2023-01-18T05:46:02.064Z,81.37
2023-01-18T05:47:01.986Z,79.73
2023-01-18T05:48:01.969Z,79.61
2023-01-18T05:49:01.969Z,80.27
2023-01-18T05:50:01.938Z,79.50
2023-01-18T05:51:01.905Z,80.78
2023-01-18T05:52:01.884Z,80.21
2023-01-18T05:53:02.142Z,79.95
2023-01-18T05:54:01.875Z,79.00
2023-01-18T05:55:01.827Z,78.13
2023-01-18T05:56:01.796Z,79.28
2023-01-18T05:57:01.780Z,78.99
2023-01-18T05:58:01.760Z,79.67
2023-01-18T05:59:01.758Z,79.49
2023-01-18T06:00:01.756Z,78.55
2023-01-18T06:01:01.777Z,80.44
2023-01-18T06:02:01.714Z,80.46
2023-01-18T06:03:01.760Z,77.95
2023-01-18T06:04:01.708Z,79.88
2023-01-18T06:05:01.612Z,78.98
2023-01-18T06:06:01.602Z,76.73
2023-01-18T06:07:01.579Z,79.39
2023-01-18T06:08:01.550Z,80.74
2023-01-18T06:09:01.555Z,80.54
2023-01-18T06:10:01.548Z,78.98
2023-01-18T06:11:01.491Z,79.66
2023-01-18T06:12:01.483Z,80.27
2023-01-18T06:13:01.567Z,80.22
2023-01-18T06:14:01.467Z,78.63
2023-01-18T06:15:01.405Z,79.62
2023-01-18T06:16:01.442Z,80.90
2023-01-18T06:17:01.369Z,80.57
2023-01-18T06:18:01.341Z,79.61
2023-01-18T06:19:01.346Z,80.16
2023-01-18T06:20:01.308Z,80.06
2023-01-18T06:21:01.679Z,79.73
2023-01-18T06:22:02.257Z,79.56
2023-01-18T06:23:01.690Z,78.55
2023-01-18T06:24:01.241Z,79.36
2023-01-18T06:25:01.195Z,79.58
2023-01-18T06:26:01.185Z,77.43
2023-01-18T06:27:01.149Z,79.98
2023-01-18T06:28:01.128Z,80.04
2023-01-18T06:29:01.135Z,79.82
2023-01-18T06:30:01.094Z,79.50
2023-01-18T06:31:01.069Z,78.12
2023-01-18T06:32:01.111Z,79.06
2023-01-18T06:33:01.329Z,80.16
2023-01-18T06:34:01.025Z,79.02
2023-01-18T06:35:00.982Z,79.09
2023-01-18T06:36:00.962Z,81.01
2023-01-18T06:37:00.940Z,79.68
2023-01-18T06:38:00.933Z,78.76
2023-01-18T06:39:00.940Z,79.00
2023-01-18T06:40:02.797Z,78.93
2023-01-18T06:41:01.855Z,79.75
2023-01-18T06:42:00.829Z,80.48
2023-01-18T06:43:01.388Z,79.62
2023-01-18T06:44:00.817Z,80.50
2023-01-18T06:45:00.777Z,79.64
2023-01-18T06:46:00.824Z,81.06
2023-01-18T06:47:00.726Z,80.10
2023-01-18T06:48:00.715Z,80.34
2023-01-18T06:49:00.727Z,80.06
2023-01-18T06:50:00.667Z,79.94
2023-01-18T06:51:00.648Z,80.22
2023-01-18T06:52:00.632Z,78.18
2023-01-18T06:53:01.089Z,78.70
2023-01-18T06:54:00.624Z,78.27
2023-01-18T06:55:00.562Z,78.42
2023-01-18T06:56:00.543Z,80.16
2023-01-18T06:57:00.522Z,80.89
2023-01-18T06:58:00.502Z,79.45
2023-01-18T06:59:00.510Z,79.58
2023-01-18T07:00:00.464Z,79.92
2023-01-18T07:01:00.554Z,80.26
2023-01-18T07:02:00.505Z,80.13
2023-01-18T07:03:00.765Z,79.37
2023-01-18T07:04:00.420Z,79.92
2023-01-18T07:05:00.365Z,79.50
2023-01-18T07:06:00.340Z,79.94
2023-01-18T07:07:00.315Z,80.37
2023-01-18T07:08:00.291Z,80.38
2023-01-18T07:09:00.293Z,81.10
2023-01-18T07:10:00.264Z,80.34
2023-01-18T07:11:00.230Z,80.36
2023-01-18T07:12:00.206Z,79.77
2023-01-18T07:13:00.848Z,82.12
2023-01-18T07:14:00.189Z,80.96
2023-01-18T07:15:04.906Z,80.52
2023-01-18T07:16:01.347Z,80.92
2023-01-18T07:17:01.172Z,82.21
2023-01-18T07:18:00.114Z,78.93
2023-01-18T07:19:00.111Z,80.16
2023-01-18T07:20:00.049Z,80.62
2023-01-18T07:21:00.038Z,79.96
2023-01-18T07:22:00.005Z,79.78
2023-01-18T07:23:00.374Z,80.46
2023-01-18T07:23:59.989Z,81.92
2023-01-18T07:24:59.937Z,81.07
2023-01-18T07:25:59.920Z,79.89
2023-01-18T07:26:59.905Z,81.02
2023-01-18T07:27:59.874Z,81.27
2023-01-18T07:28:59.879Z,81.35
2023-01-18T07:29:59.827Z,81.28
2023-01-18T07:30:59.820Z,80.27
2023-01-18T07:31:59.848Z,80.15
2023-01-18T07:33:00.155Z,78.81
2023-01-18T07:33:59.779Z,79.25
2023-01-18T07:34:59.729Z,79.11
2023-01-18T07:35:59.718Z,80.75
2023-01-18T07:36:59.691Z,80.85
2023-01-18T07:37:59.673Z,79.72
2023-01-18T07:38:59.677Z,78.55
2023-01-18T07:39:59.630Z,78.71
2023-01-18T07:40:59.628Z,79.52
2023-01-18T07:41:59.588Z,79.36
2023-01-18T07:42:59.990Z,79.80
2023-01-18T07:43:59.574Z,78.81
2023-01-18T07:44:59.528Z,79.11
2023-01-18T07:45:59.518Z,79.37
2023-01-18T07:46:59.528Z,77.57
2023-01-18T07:47:59.475Z,80.52
2023-01-18T07:48:59.488Z,80.80
2023-01-18T07:49:59.428Z,79.71
2023-01-18T07:50:59.407Z,80.11
2023-01-18T07:51:59.388Z,80.39
2023-01-18T07:52:59.763Z,80.31
2023-01-18T07:53:59.378Z,79.68
2023-01-18T07:54:59.329Z,78.35
2023-01-18T07:55:59.314Z,78.69
2023-01-18T07:56:59.295Z,79.80
2023-01-18T07:57:59.270Z,79.17
2023-01-18T07:58:59.282Z,78.03
2023-01-18T07:59:59.250Z,80.27
2023-01-18T08:00:59.250Z,79.42
2023-01-18T08:01:59.191Z,79.90
2023-01-18T08:02:59.420Z,78.63
2023-01-18T08:04:00.193Z,80.26
2023-01-18T08:04:59.134Z,79.98
2023-01-18T08:05:59.115Z,79.88
2023-01-18T08:06:59.093Z,78.75
2023-01-18T08:07:59.072Z,80.34
2023-01-18T08:08:59.055Z,80.80
2023-01-18T08:09:59.087Z,79.74
2023-01-18T08:10:59.034Z,80.91
2023-01-18T08:11:58.997Z,81.03
2023-01-18T08:12:59.307Z,80.44
2023-01-18T08:13:58.996Z,78.85
2023-01-18T08:14:58.950Z,80.35
2023-01-18T08:15:58.983Z,80.70
2023-01-18T08:16:58.935Z,80.82
2023-01-18T08:17:58.881Z,80.47
2023-01-18T08:18:58.888Z,81.15
2023-01-18T08:19:58.845Z,80.21
2023-01-18T08:20:58.823Z,80.74
2023-01-18T08:21:58.800Z,78.54
2023-01-18T08:22:59.113Z,79.39
2023-01-18T08:23:58.791Z,78.56
2023-01-18T08:24:58.771Z,77.63
2023-01-18T08:25:58.727Z,76.77
2023-01-18T08:26:58.708Z,78.52
2023-01-18T08:27:58.691Z,78.28
2023-01-18T08:28:58.675Z,77.83
2023-01-18T08:29:58.682Z,76.91
2023-01-18T08:30:58.699Z,75.24
2023-01-18T08:31:58.629Z,75.11
2023-01-18T08:32:58.966Z,76.97
2023-01-18T08:33:58.580Z,76.66
2023-01-18T08:34:58.618Z,77.49
2023-01-18T08:35:58.540Z,77.50
2023-01-18T08:36:58.528Z,77.38
2023-01-18T08:37:58.501Z,76.40
2023-01-18T08:38:58.485Z,74.51
2023-01-18T08:39:58.493Z,77.89
2023-01-18T08:40:58.449Z,77.23
2023-01-18T08:41:58.431Z,77.77
2023-01-18T08:42:58.792Z,77.59
2023-01-18T08:43:58.399Z,76.65
2023-01-18T08:44:58.407Z,75.97
2023-01-18T08:45:58.365Z,76.92
2023-01-18T08:46:58.336Z,77.44
2023-01-18T08:47:58.320Z,77.89
2023-01-18T08:48:58.297Z,77.44
2023-01-18T08:49:58.306Z,77.23
2023-01-18T08:50:58.275Z,76.52
2023-01-18T08:51:58.244Z,77.44
2023-01-18T08:52:58.551Z,77.56
2023-01-18T08:53:58.205Z,77.54
2023-01-18T08:54:58.212Z,76.18
2023-01-18T08:55:58.168Z,77.19
2023-01-18T08:56:58.145Z,77.32
2023-01-18T08:57:58.189Z,77.56
2023-01-18T08:58:58.116Z,78.09
2023-01-18T08:59:58.119Z,76.88
2023-01-18T09:00:58.118Z,77.60
2023-01-18T09:01:58.060Z,76.60
2023-01-18T09:02:58.616Z,77.80
2023-01-18T09:03:58.020Z,78.94
2023-01-18T09:04:58.028Z,77.95
2023-01-18T09:05:57.980Z,76.76
2023-01-18T09:06:57.963Z,77.72
2023-01-18T09:07:58.021Z,76.52
2023-01-18T09:08:57.923Z,77.12
2023-01-18T09:09:57.931Z,77.50
2023-01-18T09:10:57.887Z,76.63
2023-01-18T09:11:57.890Z,77.55
2023-01-18T09:12:58.310Z,79.11
2023-01-18T09:14:01.912Z,78.83
2023-01-18T09:14:58.842Z,78.66
2023-01-18T09:15:57.872Z,77.76
2023-01-18T09:16:57.798Z,78.54
2023-01-18T09:17:57.761Z,75.99
2023-01-18T09:18:57.749Z,77.33
2023-01-18T09:19:57.746Z,75.96
2023-01-18T09:20:57.709Z,77.57
2023-01-18T09:21:57.684Z,76.50
2023-01-18T09:22:58.051Z,76.60
2023-01-18T09:23:57.656Z,77.84
2023-01-18T09:24:57.670Z,76.70
2023-01-18T09:25:57.614Z,75.18
2023-01-18T09:26:57.598Z,75.79
2023-01-18T09:27:57.582Z,76.96
2023-01-18T09:28:57.565Z,75.45
2023-01-18T09:29:57.562Z,76.32
2023-01-18T09:30:57.519Z,75.63
2023-01-18T09:31:57.498Z,77.09
2023-01-18T09:32:57.989Z,77.19
2023-01-18T09:34:06.349Z,76.58
2023-01-18T09:34:59.467Z,76.84
2023-01-18T09:35:57.435Z,76.20
2023-01-18T09:36:57.406Z,76.12
2023-01-18T09:37:57.416Z,77.74
2023-01-18T09:38:57.377Z,77.68
2023-01-18T09:39:57.381Z,75.88
2023-01-18T09:40:57.340Z,76.06
2023-01-18T09:41:57.310Z,78.28
2023-01-18T09:42:57.792Z,76.89
2023-01-18T09:43:57.279Z,77.62
2023-01-18T09:44:57.291Z,75.99
2023-01-18T09:45:57.251Z,77.26
2023-01-18T09:46:57.252Z,77.00
2023-01-18T09:47:57.201Z,75.33
2023-01-18T09:48:57.188Z,75.15
2023-01-18T09:49:57.167Z,76.73
2023-01-18T09:50:57.171Z,75.96
2023-01-18T09:51:57.134Z,77.01
2023-01-18T09:52:57.536Z,76.30
2023-01-18T09:53:57.113Z,77.98
2023-01-18T09:54:57.073Z,75.52
2023-01-18T09:55:57.099Z,76.24
2023-01-18T09:56:57.042Z,76.58
2023-01-18T09:57:57.020Z,77.05
2023-01-18T09:58:56.995Z,77.25
2023-01-18T09:59:56.980Z,75.58
2023-01-18T10:00:57.066Z,77.01
2023-01-18T10:01:57.058Z,76.33
2023-01-18T10:02:57.430Z,76.38
2023-01-18T10:03:56.906Z,76.56
2023-01-18T10:04:56.890Z,76.25
2023-01-18T10:05:56.872Z,74.94
2023-01-18T10:06:56.851Z,76.55
2023-01-18T10:07:56.859Z,76.25
2023-01-18T10:08:56.812Z,77.11
2023-01-18T10:09:56.807Z,75.64
2023-01-18T10:10:56.801Z,76.45
2023-01-18T10:11:56.770Z,76.15
2023-01-18T10:12:57.155Z,77.38
2023-01-18T10:13:56.728Z,75.57
2023-01-18T10:14:56.701Z,76.64
2023-01-18T10:15:56.741Z,78.14
2023-01-18T10:16:56.665Z,78.01
2023-01-18T10:17:56.656Z,75.74
2023-01-18T10:18:56.620Z,77.86
2023-01-18T10:19:56.600Z,77.28
2023-01-18T10:20:56.605Z,76.20
2023-01-18T10:21:56.561Z,77.21
2023-01-18T10:22:56.836Z,76.66
2023-01-18T10:23:56.523Z,76.43
2023-01-18T10:24:56.509Z,76.42
2023-01-18T10:25:56.517Z,77.12
2023-01-18T10:26:56.507Z,75.67
2023-01-18T10:27:56.446Z,78.04
2023-01-18T10:28:56.427Z,76.68
2023-01-18T10:29:56.408Z,77.42
2023-01-18T10:30:56.422Z,75.78
2023-01-18T10:31:56.374Z,76.21
2023-01-18T10:32:56.825Z,75.15
2023-01-18T10:33:56.350Z,76.40
2023-01-18T10:34:56.321Z,76.23
2023-01-18T10:35:56.330Z,75.37
2023-01-18T10:36:56.283Z,74.46
2023-01-18T10:37:56.485Z,75.89
2023-01-18T10:38:56.277Z,77.11
2023-01-18T10:39:56.230Z,77.42
2023-01-18T10:40:56.235Z,77.62
2023-01-18T10:41:56.193Z,75.94
2023-01-18T10:42:56.574Z,76.03
2023-01-18T10:43:56.178Z,76.37
2023-01-18T10:44:56.139Z,75.85
2023-01-18T10:45:56.195Z,76.47
2023-01-18T10:46:56.116Z,76.37
2023-01-18T10:47:56.086Z,75.42
2023-01-18T10:48:56.069Z,75.61
2023-01-18T10:49:56.052Z,75.75
2023-01-18T10:50:56.060Z,76.49
2023-01-18T10:51:56.015Z,76.53
2023-01-18T10:52:56.069Z,74.38
2023-01-18T10:53:56.016Z,76.56
2023-01-18T10:54:55.976Z,74.87
2023-01-18T10:55:55.993Z,76.97
2023-01-18T10:56:55.925Z,77.13
2023-01-18T10:57:56.112Z,77.28
2023-01-18T10:58:55.891Z,76.82
2023-01-18T10:59:56.869Z,74.81
2023-01-18T11:00:55.910Z,76.82
2023-01-18T11:01:55.976Z,74.44
2023-01-18T11:02:55.816Z,75.76
2023-01-18T11:03:55.805Z,75.44
2023-01-18T11:04:55.779Z,76.05
2023-01-18T11:05:55.791Z,76.76
2023-01-18T11:06:55.745Z,75.99
2023-01-18T11:07:55.726Z,78.15
2023-01-18T11:08:55.708Z,74.39
2023-01-18T11:09:55.724Z,75.24
2023-01-18T11:10:55.700Z,75.26
2023-01-18T11:11:55.663Z,75.00
2023-01-18T11:12:55.655Z,73.64
2023-01-18T11:13:55.625Z,74.99
2023-01-18T11:14:55.606Z,75.69
2023-01-18T11:15:55.625Z,75.52
2023-01-18T11:16:55.573Z,75.89
2023-01-18T11:17:55.571Z,75.34
2023-01-18T11:18:55.622Z,75.79
2023-01-18T11:19:55.521Z,75.58
2023-01-18T11:20:55.504Z,75.81
2023-01-18T11:21:55.491Z,76.76
2023-01-18T11:22:55.471Z,76.16
2023-01-18T11:23:55.445Z,75.55
2023-01-18T11:24:55.455Z,75.77
2023-01-18T11:25:55.448Z,76.14
2023-01-18T11:26:55.402Z,76.92
2023-01-18T11:27:55.384Z,76.39
2023-01-18T11:28:55.386Z,74.90
2023-01-18T11:29:55.351Z,75.56
2023-01-18T11:30:55.365Z,76.23
2023-01-18T11:31:55.404Z,76.17
2023-01-18T11:32:55.291Z,75.98
2023-01-18T11:33:55.275Z,74.95
2023-01-18T11:34:55.257Z,75.38
2023-01-18T11:35:55.262Z,76.94
2023-01-18T11:36:55.221Z,73.55
2023-01-18T11:37:55.208Z,75.07
2023-01-18T11:38:55.186Z,73.85
2023-01-18T11:39:55.173Z,74.71
2023-01-18T11:40:55.176Z,74.07
2023-01-18T11:41:55.133Z,73.62
2023-01-18T11:42:55.193Z,75.63
2023-01-18T11:43:55.113Z,76.28
2023-01-18T11:44:55.111Z,76.99
2023-01-18T11:45:55.130Z,75.91
2023-01-18T11:46:55.048Z,74.28
2023-01-18T11:47:55.036Z,75.86
2023-01-18T11:48:55.023Z,75.59
2023-01-18T11:49:54.996Z,73.81
2023-01-18T11:50:55.023Z,76.79
2023-01-18T11:51:54.963Z,74.32
2023-01-18T11:52:54.971Z,75.43
2023-01-18T11:53:54.928Z,75.77
2023-01-18T11:54:54.911Z,74.66
2023-01-18T11:55:54.952Z,74.24
2023-01-18T11:56:54.873Z,73.72
2023-01-18T11:57:54.904Z,74.18
2023-01-18T11:58:54.837Z,75.68
2023-01-18T11:59:54.846Z,76.67
2023-01-18T12:00:54.832Z,75.62
2023-01-18T12:01:54.817Z,77.22
2023-01-18T12:02:54.769Z,76.27
2023-01-18T12:03:54.755Z,76.37
2023-01-18T12:04:54.730Z,76.51
2023-01-18T12:05:54.738Z,76.71
2023-01-18T12:06:54.736Z,76.72
2023-01-18T12:07:54.680Z,76.14
2023-01-18T12:08:54.654Z,75.32
2023-01-18T12:09:54.639Z,76.12
2023-01-18T12:10:54.615Z,76.64
2023-01-18T12:11:59.511Z,77.41
2023-01-18T12:12:55.601Z,74.50
2023-01-18T12:13:54.572Z,75.79
2023-01-18T12:14:54.555Z,75.13
2023-01-18T12:15:54.541Z,73.23
2023-01-18T12:16:54.567Z,74.43
2023-01-18T12:18:07.830Z,76.03
2023-01-18T12:18:56.483Z,75.38
2023-01-18T12:19:54.460Z,75.35
2023-01-18T12:20:54.447Z,75.06
2023-01-18T12:21:54.451Z,75.45
2023-01-18T12:22:54.411Z,74.51
2023-01-18T12:23:54.402Z,73.91
2023-01-18T12:24:54.376Z,73.79
2023-01-18T12:26:10.686Z,76.26
2023-01-18T12:26:56.360Z,76.06
2023-01-18T12:27:54.313Z,73.69
2023-01-18T12:28:54.298Z,77.11
2023-01-18T12:29:54.277Z,76.77
2023-01-18T12:30:54.385Z,76.25
2023-01-18T12:31:54.267Z,75.69
2023-01-18T12:32:54.222Z,76.39
2023-01-18T12:33:54.202Z,75.27
2023-01-18T12:34:54.213Z,76.32
2023-01-18T12:35:54.164Z,74.58
2023-01-18T12:36:54.173Z,74.77
2023-01-18T12:37:54.125Z,76.50
2023-01-18T12:38:54.119Z,74.94
2023-01-18T12:39:54.099Z,76.54
2023-01-18T12:40:54.078Z,75.42
2023-01-18T12:41:54.091Z,76.03
2023-01-18T12:42:54.042Z,74.88
2023-01-18T12:43:55.188Z,75.29
2023-01-18T12:44:54.006Z,74.85
2023-01-18T12:45:53.989Z,77.71
2023-01-18T12:46:54.007Z,77.20
2023-01-18T12:47:53.956Z,78.04
2023-01-18T12:48:53.927Z,76.96
2023-01-18T12:49:53.908Z,75.98
2023-01-18T12:50:53.889Z,77.15
2023-01-18T12:51:53.893Z,76.46